sensor_id;sensor_type;location;lat;lon;timestamp;P1;durP1;ratioP1;P2;durP2;ratioP2
79074;SDS011;68476;42.710;23.388;2023-07-28T00:01:50;6.65;;;6.03;;
79074;SDS011;68476;42.710;23.388;2023-07-28T00:04:15;6.57;;;5.70;;
79074;SDS011;68476;42.710;23.388;2023-07-28T00:06:40;7.85;;;6.57;;
79074;SDS011;68476;42.710;23.388;2023-07-28T00:09:06;7.38;;;6.63;;
79074;SDS011;68476;42.710;23.388;2023-07-28T00:11:31;7.10;;;6.50;;
79074;SDS011;68476;42.710;23.388;2023-07-28T00:13:56;7.07;;;6.35;;
79074;SDS011;68476;42.710;23.388;2023-07-28T00:16:22;7.47;;;6.72;;
79074;SDS011;68476;42.710;23.388;2023-07-28T00:18:47;6.65;;;6.05;;
79074;SDS011;68476;42.710;23.388;2023-07-28T00:21:12;8.23;;;6.40;;
79074;SDS011;68476;42.710;23.388;2023-07-28T00:23:38;6.50;;;5.90;;
79074;SDS011;68476;42.710;23.388;2023-07-28T00:26:03;8.60;;;5.68;;
79074;SDS011;68476;42.710;23.388;2023-07-28T00:28:29;7.03;;;5.50;;
79074;SDS011;68476;42.710;23.388;2023-07-28T00:30:54;5.95;;;5.43;;
79074;SDS011;68476;42.710;23.388;2023-07-28T00:33:19;6.25;;;5.00;;
79074;SDS011;68476;42.710;23.388;2023-07-28T00:35:45;6.03;;;4.60;;
79074;SDS011;68476;42.710;23.388;2023-07-28T00:38:10;5.38;;;4.88;;
79074;SDS011;68476;42.710;23.388;2023-07-28T00:40:36;5.28;;;4.78;;
79074;SDS011;68476;42.710;23.388;2023-07-28T00:43:01;5.28;;;4.75;;
79074;SDS011;68476;42.710;23.388;2023-07-28T00:45:27;6.07;;;4.88;;
79074;SDS011;68476;42.710;23.388;2023-07-28T00:47:54;5.78;;;5.05;;
79074;SDS011;68476;42.710;23.388;2023-07-28T00:50:22;5.38;;;4.82;;
79074;SDS011;68476;42.710;23.388;2023-07-28T00:52:48;5.47;;;4.90;;
79074;SDS011;68476;42.710;23.388;2023-07-28T00:55:14;7.50;;;5.10;;
79074;SDS011;68476;42.710;23.388;2023-07-28T00:57:40;4.85;;;4.20;;
79074;SDS011;68476;42.710;23.388;2023-07-28T01:00:05;5.72;;;4.20;;
79074;SDS011;68476;42.710;23.388;2023-07-28T01:02:31;4.90;;;4.38;;
79074;SDS011;68476;42.710;23.388;2023-07-28T01:04:57;5.38;;;4.50;;
79074;SDS011;68476;42.710;23.388;2023-07-28T01:07:26;4.88;;;4.30;;
79074;SDS011;68476;42.710;23.388;2023-07-28T01:10:02;5.22;;;4.72;;
79074;SDS011;68476;42.710;23.388;2023-07-28T01:12:28;5.10;;;4.55;;
79074;SDS011;68476;42.710;23.388;2023-07-28T01:14:53;5.20;;;4.70;;
79074;SDS011;68476;42.710;23.388;2023-07-28T01:17:19;5.72;;;4.60;;
79074;SDS011;68476;42.710;23.388;2023-07-28T01:19:44;6.38;;;4.72;;
79074;SDS011;68476;42.710;23.388;2023-07-28T01:25:32;5.60;;;4.63;;
79074;SDS011;68476;42.710;23.388;2023-07-28T01:28:06;5.05;;;4.55;;
79074;SDS011;68476;42.710;23.388;2023-07-28T01:30:32;6.85;;;5.20;;
79074;SDS011;68476;42.710;23.388;2023-07-28T01:32:58;5.22;;;4.72;;
79074;SDS011;68476;42.710;23.388;2023-07-28T01:35:24;5.82;;;4.95;;
79074;SDS011;68476;42.710;23.388;2023-07-28T01:37:50;5.30;;;4.80;;
79074;SDS011;68476;42.710;23.388;2023-07-28T01:40:19;5.85;;;4.72;;
79074;SDS011;68476;42.710;23.388;2023-07-28T01:42:45;10.60;;;5.18;;
79074;SDS011;68476;42.710;23.388;2023-07-28T01:45:11;6.97;;;5.47;;
79074;SDS011;68476;42.710;23.388;2023-07-28T01:47:36;5.35;;;4.70;;
79074;SDS011;68476;42.710;23.388;2023-07-28T01:50:02;5.00;;;4.50;;
79074;SDS011;68476;42.710;23.388;2023-07-28T01:52:27;5.22;;;4.15;;
79074;SDS011;68476;42.710;23.388;2023-07-28T01:54:53;5.95;;;4.95;;
79074;SDS011;68476;42.710;23.388;2023-07-28T01:57:18;6.30;;;5.13;;
79074;SDS011;68476;42.710;23.388;2023-07-28T01:59:44;5.38;;;4.88;;
79074;SDS011;68476;42.710;23.388;2023-07-28T02:02:09;5.88;;;5.38;;
79074;SDS011;68476;42.710;23.388;2023-07-28T02:04:34;6.60;;;5.88;;
79074;SDS011;68476;42.710;23.388;2023-07-28T02:07:00;8.50;;;6.78;;
79074;SDS011;68476;42.710;23.388;2023-07-28T02:09:25;6.50;;;5.90;;
79074;SDS011;68476;42.710;23.388;2023-07-28T02:11:51;6.53;;;5.82;;
79074;SDS011;68476;42.710;23.388;2023-07-28T02:14:17;6.25;;;5.65;;
79074;SDS011;68476;42.710;23.388;2023-07-28T02:16:42;6.07;;;5.47;;
79074;SDS011;68476;42.710;23.388;2023-07-28T02:19:08;7.65;;;5.63;;
79074;SDS011;68476;42.710;23.388;2023-07-28T02:21:33;6.03;;;5.15;;
79074;SDS011;68476;42.710;23.388;2023-07-28T02:23:58;5.97;;;5.38;;
79074;SDS011;68476;42.710;23.388;2023-07-28T02:26:24;6.45;;;5.28;;
79074;SDS011;68476;42.710;23.388;2023-07-28T02:28:49;7.85;;;5.65;;
79074;SDS011;68476;42.710;23.388;2023-07-28T02:31:14;8.13;;;5.53;;
79074;SDS011;68476;42.710;23.388;2023-07-28T02:33:40;7.43;;;4.75;;
79074;SDS011;68476;42.710;23.388;2023-07-28T02:36:05;5.85;;;4.50;;
79074;SDS011;68476;42.710;23.388;2023-07-28T02:38:31;10.50;;;7.30;;
79074;SDS011;68476;42.710;23.388;2023-07-28T02:40:56;8.30;;;5.93;;
79074;SDS011;68476;42.710;23.388;2023-07-28T02:43:21;10.38;;;6.07;;
79074;SDS011;68476;42.710;23.388;2023-07-28T02:45:48;11.88;;;6.57;;
79074;SDS011;68476;42.710;23.388;2023-07-28T02:48:18;9.70;;;5.35;;
79074;SDS011;68476;42.710;23.388;2023-07-28T02:50:46;4.70;;;4.20;;
79074;SDS011;68476;42.710;23.388;2023-07-28T02:53:12;6.68;;;4.05;;
79074;SDS011;68476;42.710;23.388;2023-07-28T02:55:41;5.88;;;4.22;;
79074;SDS011;68476;42.710;23.388;2023-07-28T02:58:07;9.05;;;5.47;;
79074;SDS011;68476;42.710;23.388;2023-07-28T03:00:33;9.73;;;6.07;;
79074;SDS011;68476;42.710;23.388;2023-07-28T03:02:59;11.23;;;5.50;;
79074;SDS011;68476;42.710;23.388;2023-07-28T03:05:24;7.70;;;4.93;;
79074;SDS011;68476;42.710;23.388;2023-07-28T03:07:49;5.07;;;4.10;;
79074;SDS011;68476;42.710;23.388;2023-07-28T03:10:15;6.75;;;4.18;;
79074;SDS011;68476;42.710;23.388;2023-07-28T03:12:42;5.95;;;4.82;;
79074;SDS011;68476;42.710;23.388;2023-07-28T03:15:08;5.93;;;5.13;;
79074;SDS011;68476;42.710;23.388;2023-07-28T03:17:33;7.57;;;4.90;;
79074;SDS011;68476;42.710;23.388;2023-07-28T03:19:58;5.47;;;4.60;;
79074;SDS011;68476;42.710;23.388;2023-07-28T03:22:24;6.80;;;4.65;;
79074;SDS011;68476;42.710;23.388;2023-07-28T03:24:49;6.10;;;4.20;;
79074;SDS011;68476;42.710;23.388;2023-07-28T03:27:15;4.68;;;4.13;;
79074;SDS011;68476;42.710;23.388;2023-07-28T03:29:40;6.38;;;5.13;;
79074;SDS011;68476;42.710;23.388;2023-07-28T03:32:05;5.40;;;4.25;;
79074;SDS011;68476;42.710;23.388;2023-07-28T03:34:31;5.88;;;4.28;;
79074;SDS011;68476;42.710;23.388;2023-07-28T03:36:56;5.45;;;4.75;;
79074;SDS011;68476;42.710;23.388;2023-07-28T03:39:22;8.02;;;4.50;;
79074;SDS011;68476;42.710;23.388;2023-07-28T03:41:47;7.13;;;5.03;;
79074;SDS011;68476;42.710;23.388;2023-07-28T03:44:12;6.80;;;5.03;;
79074;SDS011;68476;42.710;23.388;2023-07-28T03:46:38;5.18;;;4.60;;
79074;SDS011;68476;42.710;23.388;2023-07-28T03:49:03;5.55;;;4.20;;
79074;SDS011;68476;42.710;23.388;2023-07-28T03:51:29;5.63;;;4.85;;
79074;SDS011;68476;42.710;23.388;2023-07-28T03:53:54;8.85;;;5.68;;
79074;SDS011;68476;42.710;23.388;2023-07-28T03:56:19;9.18;;;5.90;;
79074;SDS011;68476;42.710;23.388;2023-07-28T03:58:45;5.70;;;4.63;;
79074;SDS011;68476;42.710;23.388;2023-07-28T04:01:10;5.10;;;4.38;;
79074;SDS011;68476;42.710;23.388;2023-07-28T04:03:35;5.32;;;4.40;;
79074;SDS011;68476;42.710;23.388;2023-07-28T04:06:05;5.55;;;4.53;;
79074;SDS011;68476;42.710;23.388;2023-07-28T04:08:32;6.25;;;4.75;;
79074;SDS011;68476;42.710;23.388;2023-07-28T04:10:57;7.72;;;5.15;;
79074;SDS011;68476;42.710;23.388;2023-07-28T04:13:22;5.53;;;4.40;;
79074;SDS011;68476;42.710;23.388;2023-07-28T04:15:48;6.70;;;4.80;;
79074;SDS011;68476;42.710;23.388;2023-07-28T04:18:13;5.35;;;4.65;;
79074;SDS011;68476;42.710;23.388;2023-07-28T04:20:39;6.05;;;5.45;;
79074;SDS011;68476;42.710;23.388;2023-07-28T04:23:04;5.65;;;5.10;;
79074;SDS011;68476;42.710;23.388;2023-07-28T04:25:29;5.63;;;5.13;;
79074;SDS011;68476;42.710;23.388;2023-07-28T04:27:55;7.53;;;5.72;;
79074;SDS011;68476;42.710;23.388;2023-07-28T04:30:21;7.05;;;5.78;;
79074;SDS011;68476;42.710;23.388;2023-07-28T04:32:46;8.00;;;6.05;;
79074;SDS011;68476;42.710;23.388;2023-07-28T04:35:12;6.40;;;5.70;;
79074;SDS011;68476;42.710;23.388;2023-07-28T04:37:38;7.55;;;5.57;;
79074;SDS011;68476;42.710;23.388;2023-07-28T04:40:04;6.90;;;6.03;;
79074;SDS011;68476;42.710;23.388;2023-07-28T04:42:29;6.60;;;6.00;;
79074;SDS011;68476;42.710;23.388;2023-07-28T04:44:55;7.88;;;5.85;;
79074;SDS011;68476;42.710;23.388;2023-07-28T04:47:20;8.68;;;6.85;;
79074;SDS011;68476;42.710;23.388;2023-07-28T04:49:45;7.22;;;6.53;;
79074;SDS011;68476;42.710;23.388;2023-07-28T04:52:11;9.55;;;6.75;;
79074;SDS011;68476;42.710;23.388;2023-07-28T04:54:36;7.10;;;6.40;;
79074;SDS011;68476;42.710;23.388;2023-07-28T04:57:02;8.75;;;6.40;;
79074;SDS011;68476;42.710;23.388;2023-07-28T04:59:27;7.45;;;6.60;;
79074;SDS011;68476;42.710;23.388;2023-07-28T05:01:52;12.45;;;8.25;;
79074;SDS011;68476;42.710;23.388;2023-07-28T05:04:18;7.82;;;6.50;;
79074;SDS011;68476;42.710;23.388;2023-07-28T05:06:44;7.10;;;6.30;;
79074;SDS011;68476;42.710;23.388;2023-07-28T05:09:09;7.70;;;6.90;;
79074;SDS011;68476;42.710;23.388;2023-07-28T05:11:35;8.20;;;6.18;;
79074;SDS011;68476;42.710;23.388;2023-07-28T05:14:00;7.63;;;6.88;;
79074;SDS011;68476;42.710;23.388;2023-07-28T05:16:26;7.40;;;6.70;;
79074;SDS011;68476;42.710;23.388;2023-07-28T05:18:51;7.22;;;6.53;;
79074;SDS011;68476;42.710;23.388;2023-07-28T05:21:16;7.57;;;6.00;;
79074;SDS011;68476;42.710;23.388;2023-07-28T05:23:42;6.97;;;6.38;;
79074;SDS011;68476;42.710;23.388;2023-07-28T05:26:07;7.32;;;6.35;;
79074;SDS011;68476;42.710;23.388;2023-07-28T05:28:34;8.13;;;7.32;;
79074;SDS011;68476;42.710;23.388;2023-07-28T05:31:04;9.90;;;6.72;;
79074;SDS011;68476;42.710;23.388;2023-07-28T05:33:30;10.98;;;6.47;;
79074;SDS011;68476;42.710;23.388;2023-07-28T05:36:05;10.15;;;6.53;;
79074;SDS011;68476;42.710;23.388;2023-07-28T05:38:30;7.93;;;6.65;;
79074;SDS011;68476;42.710;23.388;2023-07-28T05:40:56;7.53;;;6.03;;
79074;SDS011;68476;42.710;23.388;2023-07-28T05:43:32;6.93;;;5.88;;
79074;SDS011;68476;42.710;23.388;2023-07-28T05:45:59;7.68;;;5.93;;
79074;SDS011;68476;42.710;23.388;2023-07-28T05:48:25;7.28;;;5.53;;
79074;SDS011;68476;42.710;23.388;2023-07-28T05:50:51;6.13;;;5.53;;
79074;SDS011;68476;42.710;23.388;2023-07-28T05:53:18;5.88;;;5.00;;
79074;SDS011;68476;42.710;23.388;2023-07-28T05:55:45;6.18;;;5.25;;
79074;SDS011;68476;42.710;23.388;2023-07-28T05:58:11;7.57;;;5.72;;
79074;SDS011;68476;42.710;23.388;2023-07-28T06:00:38;6.75;;;5.72;;
79074;SDS011;68476;42.710;23.388;2023-07-28T06:03:05;8.77;;;5.45;;
79074;SDS011;68476;42.710;23.388;2023-07-28T06:05:31;6.50;;;5.10;;
79074;SDS011;68476;42.710;23.388;2023-07-28T06:07:56;6.32;;;5.20;;
79074;SDS011;68476;42.710;23.388;2023-07-28T06:10:21;6.20;;;5.35;;
79074;SDS011;68476;42.710;23.388;2023-07-28T06:12:47;7.57;;;5.40;;
79074;SDS011;68476;42.710;23.388;2023-07-28T06:15:12;5.40;;;4.90;;
79074;SDS011;68476;42.710;23.388;2023-07-28T06:17:37;8.05;;;5.18;;
79074;SDS011;68476;42.710;23.388;2023-07-28T06:20:03;6.15;;;5.40;;
79074;SDS011;68476;42.710;23.388;2023-07-28T06:22:29;6.97;;;5.40;;
79074;SDS011;68476;42.710;23.388;2023-07-28T06:24:55;7.03;;;5.32;;
79074;SDS011;68476;42.710;23.388;2023-07-28T06:27:20;9.68;;;5.43;;
79074;SDS011;68476;42.710;23.388;2023-07-28T06:29:46;6.40;;;5.38;;
79074;SDS011;68476;42.710;23.388;2023-07-28T06:32:11;9.80;;;5.93;;
79074;SDS011;68476;42.710;23.388;2023-07-28T06:34:37;9.27;;;6.55;;
79074;SDS011;68476;42.710;23.388;2023-07-28T06:37:02;10.02;;;6.35;;
79074;SDS011;68476;42.710;23.388;2023-07-28T06:39:27;8.38;;;6.30;;
79074;SDS011;68476;42.710;23.388;2023-07-28T06:41:55;6.20;;;5.60;;
79074;SDS011;68476;42.710;23.388;2023-07-28T06:44:20;8.32;;;6.00;;
79074;SDS011;68476;42.710;23.388;2023-07-28T06:46:46;6.70;;;5.93;;
79074;SDS011;68476;42.710;23.388;2023-07-28T06:49:12;6.47;;;5.78;;
79074;SDS011;68476;42.710;23.388;2023-07-28T06:51:37;7.65;;;6.13;;
79074;SDS011;68476;42.710;23.388;2023-07-28T06:54:03;5.88;;;4.90;;
79074;SDS011;68476;42.710;23.388;2023-07-28T06:56:28;7.60;;;5.50;;
79074;SDS011;68476;42.710;23.388;2023-07-28T06:58:54;7.05;;;5.63;;
79074;SDS011;68476;42.710;23.388;2023-07-28T07:01:19;7.85;;;5.22;;
79074;SDS011;68476;42.710;23.388;2023-07-28T07:03:45;7.10;;;4.97;;
79074;SDS011;68476;42.710;23.388;2023-07-28T07:06:10;8.80;;;5.00;;
79074;SDS011;68476;42.710;23.388;2023-07-28T07:08:36;7.88;;;5.05;;
79074;SDS011;68476;42.710;23.388;2023-07-28T07:11:01;4.90;;;4.40;;
79074;SDS011;68476;42.710;23.388;2023-07-28T07:13:27;5.30;;;4.80;;
79074;SDS011;68476;42.710;23.388;2023-07-28T07:15:52;8.48;;;5.50;;
79074;SDS011;68476;42.710;23.388;2023-07-28T07:18:17;5.88;;;4.47;;
79074;SDS011;68476;42.710;23.388;2023-07-28T07:20:43;4.78;;;4.30;;
79074;SDS011;68476;42.710;23.388;2023-07-28T07:23:13;5.35;;;4.53;;
79074;SDS011;68476;42.710;23.388;2023-07-28T07:25:39;9.00;;;4.30;;
79074;SDS011;68476;42.710;23.388;2023-07-28T07:28:04;4.30;;;3.90;;
79074;SDS011;68476;42.710;23.388;2023-07-28T07:30:33;6.70;;;4.55;;
79074;SDS011;68476;42.710;23.388;2023-07-28T07:35:24;6.30;;;4.20;;
79074;SDS011;68476;42.710;23.388;2023-07-28T07:37:50;6.70;;;3.90;;
79074;SDS011;68476;42.710;23.388;2023-07-28T07:40:15;6.57;;;4.20;;
79074;SDS011;68476;42.710;23.388;2023-07-28T07:42:45;5.78;;;4.28;;
79074;SDS011;68476;42.710;23.388;2023-07-28T07:45:12;7.00;;;4.65;;
79074;SDS011;68476;42.710;23.388;2023-07-28T07:47:39;5.90;;;4.28;;
79074;SDS011;68476;42.710;23.388;2023-07-28T07:50:05;5.72;;;4.03;;
79074;SDS011;68476;42.710;23.388;2023-07-28T07:54:59;5.70;;;3.85;;
79074;SDS011;68476;42.710;23.388;2023-07-28T07:57:24;8.32;;;4.50;;
79074;SDS011;68476;42.710;23.388;2023-07-28T07:59:50;6.05;;;4.40;;
79074;SDS011;68476;42.710;23.388;2023-07-28T08:02:15;7.97;;;3.85;;
79074;SDS011;68476;42.710;23.388;2023-07-28T08:04:40;4.70;;;4.25;;
79074;SDS011;68476;42.710;23.388;2023-07-28T08:07:08;5.50;;;3.65;;
79074;SDS011;68476;42.710;23.388;2023-07-28T08:09:37;6.40;;;4.10;;
79074;SDS011;68476;42.710;23.388;2023-07-28T08:12:02;6.07;;;4.10;;
79074;SDS011;68476;42.710;23.388;2023-07-28T08:14:28;5.32;;;3.67;;
79074;SDS011;68476;42.710;23.388;2023-07-28T08:16:56;4.63;;;3.70;;
79074;SDS011;68476;42.710;23.388;2023-07-28T08:19:22;6.07;;;3.80;;
79074;SDS011;68476;42.710;23.388;2023-07-28T08:21:47;4.15;;;3.42;;
79074;SDS011;68476;42.710;23.388;2023-07-28T08:24:12;4.50;;;3.53;;
79074;SDS011;68476;42.710;23.388;2023-07-28T08:26:38;4.25;;;3.72;;
79074;SDS011;68476;42.710;23.388;2023-07-28T08:29:04;4.35;;;3.95;;
79074;SDS011;68476;42.710;23.388;2023-07-28T08:31:29;4.30;;;3.83;;
79074;SDS011;68476;42.710;23.388;2023-07-28T08:33:55;4.80;;;3.88;;
79074;SDS011;68476;42.710;23.388;2023-07-28T08:36:20;4.25;;;3.83;;
79074;SDS011;68476;42.710;23.388;2023-07-28T08:38:45;3.88;;;3.50;;
79074;SDS011;68476;42.710;23.388;2023-07-28T08:41:12;4.30;;;3.58;;
79074;SDS011;68476;42.710;23.388;2023-07-28T08:43:38;4.20;;;3.35;;
79074;SDS011;68476;42.710;23.388;2023-07-28T08:46:04;4.40;;;4.00;;
79074;SDS011;68476;42.710;23.388;2023-07-28T08:48:29;6.63;;;3.60;;
79074;SDS011;68476;42.710;23.388;2023-07-28T08:50:54;4.53;;;3.60;;
79074;SDS011;68476;42.710;23.388;2023-07-28T08:53:20;5.43;;;3.47;;
79074;SDS011;68476;42.710;23.388;2023-07-28T08:55:45;5.13;;;3.78;;
79074;SDS011;68476;42.710;23.388;2023-07-28T08:58:18;4.88;;;3.47;;
79074;SDS011;68476;42.710;23.388;2023-07-28T09:00:45;4.32;;;3.60;;
79074;SDS011;68476;42.710;23.388;2023-07-28T09:03:14;4.63;;;3.53;;
79074;SDS011;68476;42.710;23.388;2023-07-28T09:05:39;4.50;;;3.63;;
79074;SDS011;68476;42.710;23.388;2023-07-28T09:08:06;5.38;;;3.70;;
79074;SDS011;68476;42.710;23.388;2023-07-28T09:15:37;5.47;;;3.65;;
79074;SDS011;68476;42.710;23.388;2023-07-28T09:18:03;4.90;;;3.70;;
79074;SDS011;68476;42.710;23.388;2023-07-28T09:20:35;7.13;;;4.03;;
79074;SDS011;68476;42.710;23.388;2023-07-28T09:23:01;5.05;;;4.00;;
79074;SDS011;68476;42.710;23.388;2023-07-28T09:25:28;5.85;;;3.90;;
79074;SDS011;68476;42.710;23.388;2023-07-28T09:27:55;7.72;;;3.78;;
79074;SDS011;68476;42.710;23.388;2023-07-28T09:30:21;5.93;;;3.95;;
79074;SDS011;68476;42.710;23.388;2023-07-28T09:32:49;5.53;;;3.60;;
79074;SDS011;68476;42.710;23.388;2023-07-28T09:35:15;4.85;;;3.45;;
79074;SDS011;68476;42.710;23.388;2023-07-28T09:37:42;4.55;;;3.47;;
79074;SDS011;68476;42.710;23.388;2023-07-28T09:40:10;5.18;;;3.90;;
79074;SDS011;68476;42.710;23.388;2023-07-28T09:42:41;4.25;;;3.50;;
79074;SDS011;68476;42.710;23.388;2023-07-28T09:45:08;10.90;;;4.13;;
79074;SDS011;68476;42.710;23.388;2023-07-28T09:47:35;6.93;;;3.58;;
79074;SDS011;68476;42.710;23.388;2023-07-28T09:50:05;6.70;;;3.90;;
79074;SDS011;68476;42.710;23.388;2023-07-28T09:52:43;4.90;;;3.70;;
79074;SDS011;68476;42.710;23.388;2023-07-28T09:55:14;6.30;;;3.63;;
79074;SDS011;68476;42.710;23.388;2023-07-28T09:57:45;4.85;;;3.65;;
79074;SDS011;68476;42.710;23.388;2023-07-28T10:00:13;6.03;;;3.45;;
79074;SDS011;68476;42.710;23.388;2023-07-28T10:02:40;4.72;;;3.60;;
79074;SDS011;68476;42.710;23.388;2023-07-28T10:05:06;21.42;;;4.70;;
79074;SDS011;68476;42.710;23.388;2023-07-28T10:07:35;10.95;;;3.90;;
79074;SDS011;68476;42.710;23.388;2023-07-28T10:10:05;5.25;;;4.20;;
79074;SDS011;68476;42.710;23.388;2023-07-28T10:12:51;8.90;;;4.97;;
79074;SDS011;68476;42.710;23.388;2023-07-28T10:15:20;9.63;;;3.92;;
79074;SDS011;68476;42.710;23.388;2023-07-28T10:17:54;8.95;;;4.00;;
79074;SDS011;68476;42.710;23.388;2023-07-28T10:20:30;6.03;;;3.80;;
79074;SDS011;68476;42.710;23.388;2023-07-28T10:23:06;6.25;;;3.60;;
79074;SDS011;68476;42.710;23.388;2023-07-28T10:25:33;5.05;;;3.67;;
79074;SDS011;68476;42.710;23.388;2023-07-28T10:28:00;6.45;;;3.17;;
79074;SDS011;68476;42.710;23.388;2023-07-28T10:30:33;5.63;;;3.38;;
79074;SDS011;68476;42.710;23.388;2023-07-28T10:33:01;4.40;;;3.50;;
79074;SDS011;68476;42.710;23.388;2023-07-28T10:35:53;4.47;;;3.30;;
79074;SDS011;68476;42.710;23.388;2023-07-28T10:38:29;4.57;;;3.60;;
79074;SDS011;68476;42.710;23.388;2023-07-28T10:41:06;4.88;;;3.40;;
79074;SDS011;68476;42.710;23.388;2023-07-28T10:43:33;4.82;;;3.65;;
79074;SDS011;68476;42.710;23.388;2023-07-28T10:45:59;5.20;;;3.25;;
79074;SDS011;68476;42.710;23.388;2023-07-28T10:48:25;6.18;;;3.20;;
79074;SDS011;68476;42.710;23.388;2023-07-28T10:50:51;6.75;;;3.42;;
79074;SDS011;68476;42.710;23.388;2023-07-28T10:53:16;10.02;;;3.75;;
79074;SDS011;68476;42.710;23.388;2023-07-28T10:55:42;10.20;;;4.00;;
79074;SDS011;68476;42.710;23.388;2023-07-28T10:58:07;5.05;;;3.35;;
79074;SDS011;68476;42.710;23.388;2023-07-28T11:00:33;6.38;;;3.13;;
79074;SDS011;68476;42.710;23.388;2023-07-28T11:02:58;5.13;;;3.20;;
79074;SDS011;68476;42.710;23.388;2023-07-28T11:07:53;6.68;;;3.30;;
79074;SDS011;68476;42.710;23.388;2023-07-28T11:10:21;4.60;;;3.30;;
79074;SDS011;68476;42.710;23.388;2023-07-28T11:12:51;5.50;;;3.30;;
79074;SDS011;68476;42.710;23.388;2023-07-28T11:15:18;6.00;;;3.35;;
79074;SDS011;68476;42.710;23.388;2023-07-28T11:17:45;5.63;;;3.20;;
79074;SDS011;68476;42.710;23.388;2023-07-28T11:20:18;5.38;;;3.50;;
79074;SDS011;68476;42.710;23.388;2023-07-28T11:22:46;6.05;;;3.08;;
79074;SDS011;68476;42.710;23.388;2023-07-28T11:25:17;7.28;;;3.30;;
79074;SDS011;68476;42.710;23.388;2023-07-28T11:27:42;5.55;;;3.53;;
79074;SDS011;68476;42.710;23.388;2023-07-28T11:30:08;9.07;;;3.60;;
79074;SDS011;68476;42.710;23.388;2023-07-28T11:32:35;5.57;;;3.20;;
79074;SDS011;68476;42.710;23.388;2023-07-28T11:35:05;16.33;;;3.63;;
79074;SDS011;68476;42.710;23.388;2023-07-28T11:37:35;4.63;;;3.20;;
79074;SDS011;68476;42.710;23.388;2023-07-28T11:40:03;5.25;;;3.15;;
79074;SDS011;68476;42.710;23.388;2023-07-28T11:42:46;8.68;;;3.40;;
79074;SDS011;68476;42.710;23.388;2023-07-28T11:45:13;5.93;;;2.92;;
79074;SDS011;68476;42.710;23.388;2023-07-28T11:50:39;4.63;;;3.03;;
79074;SDS011;68476;42.710;23.388;2023-07-28T11:53:06;3.35;;;2.90;;
79074;SDS011;68476;42.710;23.388;2023-07-28T11:55:34;5.78;;;3.10;;
79074;SDS011;68476;42.710;23.388;2023-07-28T11:58:01;5.82;;;2.92;;
79074;SDS011;68476;42.710;23.388;2023-07-28T12:03:09;5.07;;;2.95;;
79074;SDS011;68476;42.710;23.388;2023-07-28T12:05:37;3.30;;;2.80;;
79074;SDS011;68476;42.710;23.388;2023-07-28T12:08:04;7.47;;;3.10;;
79074;SDS011;68476;42.710;23.388;2023-07-28T12:10:32;4.95;;;3.30;;
79074;SDS011;68476;42.710;23.388;2023-07-28T12:13:03;4.10;;;2.90;;
79074;SDS011;68476;42.710;23.388;2023-07-28T12:15:30;15.30;;;3.22;;
79074;SDS011;68476;42.710;23.388;2023-07-28T12:18:12;5.75;;;3.00;;
79074;SDS011;68476;42.710;23.388;2023-07-28T12:20:42;3.70;;;2.88;;
79074;SDS011;68476;42.710;23.388;2023-07-28T12:23:12;7.10;;;2.90;;
79074;SDS011;68476;42.710;23.388;2023-07-28T12:25:42;5.15;;;2.92;;
79074;SDS011;68476;42.710;23.388;2023-07-28T12:28:08;3.20;;;2.90;;
79074;SDS011;68476;42.710;23.388;2023-07-28T12:30:33;6.47;;;3.03;;
79074;SDS011;68476;42.710;23.388;2023-07-28T12:32:59;4.47;;;2.88;;
79074;SDS011;68476;42.710;23.388;2023-07-28T12:35:25;4.72;;;3.10;;
79074;SDS011;68476;42.710;23.388;2023-07-28T12:37:55;4.95;;;2.95;;
79074;SDS011;68476;42.710;23.388;2023-07-28T12:40:21;4.70;;;3.20;;
79074;SDS011;68476;42.710;23.388;2023-07-28T12:42:47;4.70;;;3.00;;
79074;SDS011;68476;42.710;23.388;2023-07-28T12:45:13;4.80;;;3.00;;
79074;SDS011;68476;42.710;23.388;2023-07-28T12:47:40;5.03;;;3.55;;
79074;SDS011;68476;42.710;23.388;2023-07-28T12:50:05;3.80;;;3.03;;
79074;SDS011;68476;42.710;23.388;2023-07-28T12:52:35;5.47;;;3.08;;
79074;SDS011;68476;42.710;23.388;2023-07-28T12:55:01;4.55;;;3.47;;
79074;SDS011;68476;42.710;23.388;2023-07-28T12:57:26;7.00;;;3.55;;
79074;SDS011;68476;42.710;23.388;2023-07-28T12:59:52;5.55;;;2.95;;
79074;SDS011;68476;42.710;23.388;2023-07-28T13:02:17;4.25;;;3.10;;
79074;SDS011;68476;42.710;23.388;2023-07-28T13:04:42;4.05;;;3.00;;
79074;SDS011;68476;42.710;23.388;2023-07-28T13:07:08;4.25;;;2.80;;
79074;SDS011;68476;42.710;23.388;2023-07-28T13:09:33;3.13;;;2.80;;
79074;SDS011;68476;42.710;23.388;2023-07-28T13:11:59;6.38;;;3.08;;
79074;SDS011;68476;42.710;23.388;2023-07-28T13:14:24;5.68;;;3.10;;
79074;SDS011;68476;42.710;23.388;2023-07-28T13:16:49;3.80;;;3.17;;
79074;SDS011;68476;42.710;23.388;2023-07-28T13:19:15;5.40;;;2.80;;
79074;SDS011;68476;42.710;23.388;2023-07-28T13:21:41;3.55;;;2.60;;
79074;SDS011;68476;42.710;23.388;2023-07-28T13:24:06;6.15;;;2.75;;
79074;SDS011;68476;42.710;23.388;2023-07-28T13:26:31;3.00;;;2.60;;
79074;SDS011;68476;42.710;23.388;2023-07-28T13:28:57;3.15;;;2.80;;
79074;SDS011;68476;42.710;23.388;2023-07-28T13:31:23;3.30;;;2.75;;
79074;SDS011;68476;42.710;23.388;2023-07-28T13:33:52;6.80;;;3.08;;
79074;SDS011;68476;42.710;23.388;2023-07-28T13:36:17;5.75;;;3.22;;
79074;SDS011;68476;42.710;23.388;2023-07-28T13:38:43;3.28;;;2.90;;
79074;SDS011;68476;42.710;23.388;2023-07-28T13:41:08;5.07;;;2.78;;
79074;SDS011;68476;42.710;23.388;2023-07-28T13:43:33;4.47;;;2.28;;
79074;SDS011;68476;42.710;23.388;2023-07-28T13:46:01;2.83;;;2.40;;
79074;SDS011;68476;42.710;23.388;2023-07-28T13:48:27;2.95;;;2.58;;
79074;SDS011;68476;42.710;23.388;2023-07-28T13:50:52;26.13;;;3.95;;
79074;SDS011;68476;42.710;23.388;2023-07-28T13:53:18;3.15;;;2.70;;
79074;SDS011;68476;42.710;23.388;2023-07-28T13:55:43;3.13;;;2.83;;
79074;SDS011;68476;42.710;23.388;2023-07-28T13:58:08;3.50;;;2.85;;
79074;SDS011;68476;42.710;23.388;2023-07-28T14:00:35;3.67;;;2.58;;
79074;SDS011;68476;42.710;23.388;2023-07-28T14:03:00;3.72;;;2.53;;
79074;SDS011;68476;42.710;23.388;2023-07-28T14:05:28;5.10;;;2.70;;
79074;SDS011;68476;42.710;23.388;2023-07-28T14:07:57;3.00;;;2.63;;
79074;SDS011;68476;42.710;23.388;2023-07-28T14:10:22;5.75;;;2.67;;
79074;SDS011;68476;42.710;23.388;2023-07-28T14:12:49;3.30;;;2.80;;
79074;SDS011;68476;42.710;23.388;2023-07-28T14:15:17;4.20;;;2.40;;
79074;SDS011;68476;42.710;23.388;2023-07-28T14:17:42;3.60;;;2.70;;
79074;SDS011;68476;42.710;23.388;2023-07-28T14:20:08;3.00;;;2.70;;
79074;SDS011;68476;42.710;23.388;2023-07-28T14:22:34;3.55;;;2.60;;
79074;SDS011;68476;42.710;23.388;2023-07-28T14:25:00;3.72;;;2.85;;
79074;SDS011;68476;42.710;23.388;2023-07-28T14:27:25;4.63;;;3.08;;
79074;SDS011;68476;42.710;23.388;2023-07-28T14:29:51;4.25;;;2.85;;
79074;SDS011;68476;42.710;23.388;2023-07-28T14:32:16;3.25;;;2.80;;
79074;SDS011;68476;42.710;23.388;2023-07-28T14:34:41;2.83;;;2.50;;
79074;SDS011;68476;42.710;23.388;2023-07-28T14:37:07;3.28;;;2.70;;
79074;SDS011;68476;42.710;23.388;2023-07-28T14:39:33;4.60;;;2.95;;
79074;SDS011;68476;42.710;23.388;2023-07-28T14:41:58;5.18;;;3.20;;
79074;SDS011;68476;42.710;23.388;2023-07-28T14:44:24;4.35;;;3.50;;
79074;SDS011;68476;42.710;23.388;2023-07-28T14:46:49;4.68;;;3.05;;
79074;SDS011;68476;42.710;23.388;2023-07-28T14:49:14;4.47;;;2.97;;
79074;SDS011;68476;42.710;23.388;2023-07-28T14:51:40;3.05;;;2.67;;